Lela Joy — WBP2597 — position and weather

sailwx.info

Track history (hours):
 
Tides and Currents Weather Stations Pressure Air Temp Water Temp Dewpoint Dewpoint Depression Visibility Wind Speed Wind Dir Waves Ship Positions

Lela Joy

Owner: Harley Marine Services, INC, SEATTLE, WA. More information available from US FCC via Universal Licensing System and Coast Guard Vessel Documentation Center.

Last reported at 2017-Nov-18 02:30 UTC. Time now 2017-Nov-18 02:59 UTC.
Position N 47°16' W 122°25'.

Length 26 m; draft 4 m.

Type: Towing. MMSI: 366980230.

Date/timePositionNaut miles runAvg speedWind from/ knotsBaromVisibWave heightAir tempDewpointWater temp
2017-Nov-18 02:30N 47°16' W 122°25'0 0.0
2017-Nov-18 01:59N 47°16' W 122°25'0 0.0
2017-Nov-18 01:30N 47°16' W 122°25'0 0.0
2017-Nov-18 00:59N 47°16' W 122°25'0 0.5
2017-Nov-18 00:28N 47°16' W 122°25'1 1.7
2017-Nov-18 00:00N 47°17' W 122°26'1 2.1
2017-Nov-17 23:30N 47°18' W 122°27'3 5.2
2017-Nov-17 23:00N 47°20' W 122°27'3 6.2
2017-Nov-17 22:30N 47°22' W 122°24'3 5.1
2017-Nov-17 22:00N 47°25' W 122°23'3 6.2
2017-Nov-17 21:30N 47°27' W 122°25'3 6.4
2017-Nov-17 21:00N 47°31' W 122°27'3 6.4
2017-Nov-17 20:30N 47°34' W 122°27'3 6.3
2017-Nov-17 20:00N 47°36' W 122°24'2 4.0
2017-Nov-17 19:30N 47°35' W 122°21'0 0.3
2017-Nov-17 19:00N 47°35' W 122°21'0 0.0
2017-Nov-17 18:30N 47°35' W 122°21'0 0.0
2017-Nov-17 18:00N 47°35' W 122°21'0 0.0
2017-Nov-17 17:30N 47°35' W 122°21'0 0.0
2017-Nov-17 17:00N 47°35' W 122°21'0 0.0
2017-Nov-17 16:30N 47°35' W 122°21'0 0.0
2017-Nov-17 16:00N 47°35' W 122°21'0 0.0
2017-Nov-17 15:30N 47°35' W 122°21'0 0.0
2017-Nov-17 15:00N 47°35' W 122°21'0 0.0
2017-Nov-17 14:30N 47°35' W 122°21'0 0.0
2017-Nov-17 14:00N 47°35' W 122°21'0 0.0
2017-Nov-17 13:30N 47°35' W 122°21'0 0.0
2017-Nov-17 13:00N 47°35' W 122°21'0 0.0
2017-Nov-17 12:30N 47°35' W 122°21'0 0.0
2017-Nov-17 12:00N 47°35' W 122°21'0 0.0
2017-Nov-17 11:30N 47°35' W 122°21'0 0.0
2017-Nov-17 11:00N 47°35' W 122°21'0 0.0
2017-Nov-17 10:31N 47°35' W 122°21'0 0.0
2017-Nov-17 10:00N 47°35' W 122°21'0 0.0
2017-Nov-17 09:30N 47°35' W 122°21'0 0.0
2017-Nov-17 09:00N 47°35' W 122°21'0 0.0
2017-Nov-17 08:30N 47°35' W 122°21'0 0.1
2017-Nov-17 08:00N 47°35' W 122°21'1 1.5
2017-Nov-17 07:30N 47°36' W 122°21'2 3.6
2017-Nov-17 07:00N 47°36' W 122°24'3 6.5
2017-Nov-17 06:30N 47°33' W 122°25'4 7.4
2017-Nov-17 06:00N 47°29' W 122°24'4 7.5
2017-Nov-17 05:30N 47°26' W 122°22'4 7.3
2017-Nov-17 05:00N 47°22' W 122°22'4 7.5
2017-Nov-17 04:30N 47°19' W 122°27'2 4.7
2017-Nov-17 04:00N 47°17' W 122°25'3 1.7
2017-Nov-17 02:25N 47°15' W 122°23'0 0.0
2017-Nov-16 20:38N 47°15' W 122°23'1 7.5
2017-Nov-16 20:29N 47°16' W 122°24'1 1.1
2017-Nov-16 19:49N 47°16' W 122°23'0 0.3
2017-Nov-16 19:03N 47°16' W 122°23'1 1.5
2017-Nov-16 18:37N 47°15' W 122°23'0 0.0
2017-Nov-16 18:30N 47°15' W 122°23'0 0.1
2017-Nov-16 15:32N 47°16' W 122°23'0 8.7
2017-Nov-16 15:30N 47°16' W 122°23'0 0.2
2017-Nov-16 13:49N 47°16' W 122°23'1 3.8
2017-Nov-16 13:26N 47°17' W 122°25'1 2.6
2017-Nov-16 13:00N 47°17' W 122°26'2 3.8
2017-Nov-16 12:30N 47°19' W 122°28'3 5.3
2017-Nov-16 12:00N 47°21' W 122°26'3 5.9
2017-Nov-16 11:30N 47°23' W 122°22'3 5.8
2017-Nov-16 11:00N 47°26' W 122°24'3 6.2
2017-Nov-16 10:30N 47°29' W 122°26'3 6.3
2017-Nov-16 10:00N 47°32' W 122°26'3 6.0
2017-Nov-16 09:30N 47°35' W 122°26'3 5.7
2017-Nov-16 09:00N 47°36' W 122°23'1 2.7
2017-Nov-16 08:30N 47°35' W 122°21'0 0.1
2017-Nov-16 08:00N 47°35' W 122°21'0 0.1
2017-Nov-16 07:30N 47°35' W 122°21'0 0.0
2017-Nov-16 07:00N 47°35' W 122°21'0 0.0
2017-Nov-16 06:30N 47°35' W 122°21'0 0.0
2017-Nov-16 06:00N 47°35' W 122°21'0 0.0
2017-Nov-16 05:30N 47°35' W 122°21'0 0.0
2017-Nov-16 05:01N 47°35' W 122°21'0 0.0
2017-Nov-16 04:30N 47°35' W 122°21'0 0.0
2017-Nov-16 04:00N 47°35' W 122°21'0 0.0
2017-Nov-16 03:30N 47°35' W 122°21'0 0.0
2017-Nov-16 03:00N 47°35' W 122°21'0 0.0
2017-Nov-16 02:30N 47°35' W 122°21'0 0.0
2017-Nov-16 02:00N 47°35' W 122°21'0 0.0
2017-Nov-16 01:30N 47°35' W 122°21'0 0.0
2017-Nov-16 01:01N 47°35' W 122°21'0 0.0
2017-Nov-16 00:30N 47°35' W 122°21'0 0.0
2017-Nov-16 00:00N 47°35' W 122°21'0 0.0
2017-Nov-15 23:30N 47°35' W 122°21'0 0.0
2017-Nov-15 23:00N 47°35' W 122°21'0 0.0
2017-Nov-15 22:30N 47°35' W 122°21'1 1.9
2017-Nov-15 22:00N 47°34' W 122°21'0 0.1
2017-Nov-15 21:31N 47°34' W 122°21'1 1.8
2017-Nov-15 21:00N 47°35' W 122°21'0 0.0
2017-Nov-15 20:30N 47°35' W 122°21'0 0.0
2017-Nov-15 20:00N 47°35' W 122°21'0 0.0
2017-Nov-15 19:30N 47°35' W 122°21'0 0.0
2017-Nov-15 19:00N 47°35' W 122°21'0 0.0
2017-Nov-15 18:30N 47°35' W 122°21'0 0.7
2017-Nov-15 18:00N 47°35' W 122°21'1 1.8
2017-Nov-15 17:30N 47°34' W 122°21'0 0.0
2017-Nov-15 17:00N 47°34' W 122°21'1 2.0
2017-Nov-15 16:30N 47°35' W 122°21'0 0.0
2017-Nov-15 16:00N 47°35' W 122°21'0 0.0
2017-Nov-15 15:30N 47°35' W 122°21'0 0.0
2017-Nov-15 15:00N 47°35' W 122°21'0 0.0
2017-Nov-15 14:30N 47°35' W 122°21'0 0.0
2017-Nov-15 14:00N 47°35' W 122°21'0 0.0
2017-Nov-15 13:30N 47°35' W 122°21'0 0.0
2017-Nov-15 13:01N 47°35' W 122°21'0 0.0
2017-Nov-15 12:30N 47°35' W 122°21'0 0.0
2017-Nov-15 12:00N 47°35' W 122°21'0 0.0
2017-Nov-15 11:30N 47°35' W 122°21'0 0.0
2017-Nov-15 11:00N 47°35' W 122°21'0 0.0
2017-Nov-15 10:30N 47°35' W 122°21'0 0.0
2017-Nov-15 10:00N 47°35' W 122°21'0 0.0
2017-Nov-15 09:30N 47°35' W 122°21'0 0.0
2017-Nov-15 09:00N 47°35' W 122°21'0 0.0
2017-Nov-15 08:30N 47°35' W 122°21'0 0.0
2017-Nov-15 08:00N 47°35' W 122°21'0 0.0
2017-Nov-15 07:30N 47°35' W 122°21'0 0.0
2017-Nov-15 07:00N 47°35' W 122°21'0 0.0
2017-Nov-15 06:30N 47°35' W 122°21'0 0.0
2017-Nov-15 06:00N 47°35' W 122°21'0 0.0
2017-Nov-15 05:30N 47°35' W 122°21'0 0.0
2017-Nov-15 05:00N 47°35' W 122°21'0 0.0
2017-Nov-15 04:30N 47°35' W 122°21'0 0.0
2017-Nov-15 04:00N 47°35' W 122°21'0 0.0
2017-Nov-15 03:30N 47°35' W 122°21'0 0.0
2017-Nov-15 03:00N 47°35' W 122°21'0 0.0
2017-Nov-15 02:31N 47°35' W 122°21'0 0.0
2017-Nov-15 02:00N 47°35' W 122°21'0 0.0
2017-Nov-15 01:30N 47°35' W 122°21'0 0.0
2017-Nov-15 01:00N 47°35' W 122°21'1 1.6
2017-Nov-15 00:30N 47°36' W 122°22'3 6.1
2017-Nov-15 00:00N 47°35' W 122°26'3 6.7
2017-Nov-14 23:31N 47°34' W 122°31'0 0.1
2017-Nov-14 23:00N 47°34' W 122°31'0 0.1
2017-Nov-14 22:30N 47°34' W 122°30'0 0.2
2017-Nov-14 22:00N 47°34' W 122°30'0 0.2
2017-Nov-14 21:29N 47°34' W 122°30'0 0.0
2017-Nov-14 21:00N 47°34' W 122°30'0 0.1
2017-Nov-14 20:30N 47°34' W 122°30'0 0.1
2017-Nov-14 20:00N 47°34' W 122°30'0 0.0
2017-Nov-14 19:30N 47°34' W 122°30'0 0.2
2017-Nov-14 19:00N 47°34' W 122°30'0 0.0
2017-Nov-14 18:30N 47°34' W 122°30'0 0.1
2017-Nov-14 18:00N 47°34' W 122°31'0 0.0
2017-Nov-14 17:30N 47°34' W 122°31'0 0.0
2017-Nov-14 17:00N 47°34' W 122°31'0 0.1
2017-Nov-14 16:30N 47°34' W 122°30'0 0.0
2017-Nov-14 16:00N 47°34' W 122°30'0 0.0
2017-Nov-14 15:30N 47°34' W 122°30'0 0.0
2017-Nov-14 15:00N 47°34' W 122°30'0 0.0
2017-Nov-14 14:30N 47°34' W 122°30'0 0.0
2017-Nov-14 14:00N 47°34' W 122°30'0 0.0
2017-Nov-14 13:30N 47°34' W 122°30'0 0.0
2017-Nov-14 13:00N 47°34' W 122°30'0 0.1
2017-Nov-14 12:31N 47°34' W 122°31'2 3.0
2017-Nov-14 12:00N 47°34' W 122°28'2 4.1
2017-Nov-14 11:30N 47°35' W 122°26'3 5.2
2017-Nov-14 11:00N 47°36' W 122°22'1 2.0
2017-Nov-14 10:30N 47°35' W 122°21'0 0.1
2017-Nov-14 10:00N 47°35' W 122°21'0 0.0
2017-Nov-14 09:30N 47°35' W 122°21'0 0.0
2017-Nov-14 09:00N 47°35' W 122°21'0 0.0
2017-Nov-14 08:30N 47°35' W 122°21'0 0.0
2017-Nov-14 08:00N 47°35' W 122°21'0 0.0
2017-Nov-14 07:30N 47°35' W 122°21'0 0.0
2017-Nov-14 07:00N 47°35' W 122°21'0 0.0
2017-Nov-14 06:30N 47°35' W 122°21'0 0.0
2017-Nov-14 06:00N 47°35' W 122°21'0 0.0
2017-Nov-14 05:30N 47°35' W 122°21'0 0.0
2017-Nov-14 05:00N 47°35' W 122°21'0 0.0
2017-Nov-14 04:30N 47°35' W 122°21'0 0.0
2017-Nov-14 04:00N 47°35' W 122°21'0 0.0
2017-Nov-14 03:30N 47°35' W 122°21'0 0.0
2017-Nov-14 03:00N 47°35' W 122°21'0 0.0
2017-Nov-14 02:30N 47°35' W 122°21'0 0.0
2017-Nov-14 02:00N 47°35' W 122°21'0 0.0
2017-Nov-14 01:30N 47°35' W 122°21'0 0.0
2017-Nov-14 01:00N 47°35' W 122°21'1 1.9
2017-Nov-14 00:30N 47°34' W 122°21'0 0.7
2017-Nov-14 00:00N 47°35' W 122°21'0 0.6
2017-Nov-13 23:30N 47°34' W 122°21'1 2.7
2017-Nov-13 23:00N 47°36' W 122°21'0 0.3
2017-Nov-13 22:30N 47°36' W 122°21'0 0.6
2017-Nov-13 22:00N 47°35' W 122°21'1 0.0
2017-Nov-13 02:00N 47°35' W 122°23'0 0.0
2017-Nov-13 01:30N 47°35' W 122°23'0 0.0
2017-Nov-13 01:00N 47°35' W 122°23'0 0.1
2017-Nov-13 00:30N 47°35' W 122°23'0 0.0
2017-Nov-13 00:00N 47°35' W 122°23'0 0.0
2017-Nov-12 23:30N 47°35' W 122°23'0 0.1
2017-Nov-12 23:00N 47°35' W 122°23'0 0.0
2017-Nov-12 22:30N 47°35' W 122°23'0 0.7
2017-Nov-12 22:00N 47°36' W 122°22'0 0.5
2017-Nov-12 21:30N 47°36' W 122°22'0 0.0
2017-Nov-12 21:00N 47°36' W 122°22'0 0.0
2017-Nov-12 20:29N 47°36' W 122°22'0 0.0
2017-Nov-12 20:01N 47°36' W 122°22'0 0.0
2017-Nov-12 19:30N 47°36' W 122°22'0 0.0
2017-Nov-12 19:00N 47°36' W 122°22'0 0.1
2017-Nov-12 18:30N 47°36' W 122°22'0 0.0
2017-Nov-12 18:00N 47°36' W 122°22'0 0.0
2017-Nov-12 17:30N 47°36' W 122°22'0 0.1
2017-Nov-12 17:00N 47°36' W 122°22'0 0.0
2017-Nov-12 16:30N 47°36' W 122°22'0 0.0
2017-Nov-12 16:00N 47°36' W 122°22'0 0.0
2017-Nov-12 15:29N 47°36' W 122°22'0 0.0
2017-Nov-12 15:00N 47°36' W 122°22'0 0.0
2017-Nov-12 14:30N 47°36' W 122°22'0 0.1
2017-Nov-12 14:00N 47°36' W 122°22'0 0.0
2017-Nov-12 13:30N 47°36' W 122°22'0 0.1
2017-Nov-12 13:00N 47°36' W 122°22'0 0.0
2017-Nov-12 12:30N 47°36' W 122°22'0 0.0
2017-Nov-12 12:00N 47°36' W 122°22'0 0.0
2017-Nov-12 11:30N 47°36' W 122°22'0 0.0
2017-Nov-12 11:01N 47°36' W 122°22'0 0.0
2017-Nov-12 10:30N 47°36' W 122°22'0 0.0
2017-Nov-12 10:00N 47°36' W 122°22'0 0.0
2017-Nov-12 09:30N 47°36' W 122°22'0 0.0
2017-Nov-12 09:00N 47°36' W 122°22'0 0.0
2017-Nov-12 08:30N 47°36' W 122°22'0 0.0
2017-Nov-12 08:00N 47°36' W 122°22'0 0.1
2017-Nov-12 07:30N 47°36' W 122°22'0 0.2
2017-Nov-12 07:01N 47°36' W 122°22'1 1.8
2017-Nov-12 06:30N 47°35' W 122°21'0 0.1
2017-Nov-12 06:00N 47°35' W 122°21'0 0.0
2017-Nov-12 05:30N 47°35' W 122°21'0 0.0
2017-Nov-12 05:00N 47°35' W 122°21'0 0.0
2017-Nov-12 04:31N 47°35' W 122°21'0 0.0
2017-Nov-12 04:00N 47°35' W 122°21'0 0.0
2017-Nov-12 03:30N 47°35' W 122°21'0 0.0
2017-Nov-12 03:01N 47°35' W 122°21'0 0.0
2017-Nov-12 02:30N 47°35' W 122°21'0 0.0
2017-Nov-12 02:00N 47°35' W 122°21'0 0.0
2017-Nov-12 01:30N 47°35' W 122°21'0 0.0
2017-Nov-12 01:00N 47°35' W 122°21'1 1.5
2017-Nov-12 00:30N 47°35' W 122°21'0 0.4
2017-Nov-12 00:00N 47°34' W 122°21'0 0.0
2017-Nov-11 23:30N 47°34' W 122°21'0 0.0
2017-Nov-11 23:00N 47°34' W 122°21'0 0.0
2017-Nov-11 22:30N 47°34' W 122°21'0 0.0
2017-Nov-11 22:00N 47°34' W 122°21'0 0.0
2017-Nov-11 21:30N 47°34' W 122°21'0 0.0
2017-Nov-11 21:00N 47°34' W 122°21'0 0.0
2017-Nov-11 20:30N 47°34' W 122°21'0 0.0
2017-Nov-11 20:00N 47°34' W 122°21'0 0.0
2017-Nov-11 19:30N 47°34' W 122°21'0 0.0
2017-Nov-11 19:00N 47°34' W 122°21'0 0.0
2017-Nov-11 18:30N 47°34' W 122°21'1 1.4
2017-Nov-11 18:01N 47°35' W 122°21'0 0.7
2017-Nov-11 17:30N 47°35' W 122°21'3 5.1
2017-Nov-11 17:00N 47°36' W 122°24'3 6.2
2017-Nov-11 16:30N 47°34' W 122°28'3 5.3
2017-Nov-11 16:00N 47°32' W 122°32'0 0.1
2017-Nov-11 15:30N 47°32' W 122°32'0 0.1
2017-Nov-11 15:00N 47°33' W 122°32'0 0.1
2017-Nov-11 14:31N 47°33' W 122°32'0 0.1
2017-Nov-11 14:00N 47°33' W 122°32'0 0.1
2017-Nov-11 13:30N 47°33' W 122°32'0 0.2
2017-Nov-11 13:00N 47°33' W 122°31'0 0.0
2017-Nov-11 12:30N 47°33' W 122°31'0 0.0
2017-Nov-11 12:00N 47°33' W 122°31'0 0.0
2017-Nov-11 11:30N 47°33' W 122°31'0 0.0
2017-Nov-11 11:00N 47°33' W 122°31'0 0.1
2017-Nov-11 10:30N 47°33' W 122°31'0 0.0
2017-Nov-11 10:00N 47°33' W 122°31'0 0.0
2017-Nov-11 09:30N 47°33' W 122°31'0 0.0
2017-Nov-11 09:00N 47°33' W 122°31'0 0.1
2017-Nov-11 08:30N 47°33' W 122°31'0 0.1
2017-Nov-11 08:00N 47°33' W 122°31'0 0.1
2017-Nov-11 07:30N 47°33' W 122°31'0 0.1
2017-Nov-11 07:00N 47°33' W 122°31'1 2.6
2017-Nov-11 06:30N 47°33' W 122°30'0 0.5
2017-Nov-11 06:00N 47°34' W 122°29'0 0.0
2017-Nov-11 05:30N 47°34' W 122°29'0 0.0
2017-Nov-11 05:00N 47°34' W 122°29'0 0.1
2017-Nov-11 04:30N 47°34' W 122°29'0 0.0
2017-Nov-11 04:00N 47°34' W 122°29'0 0.0
2017-Nov-11 03:30N 47°34' W 122°29'0 0.1
2017-Nov-11 03:00N 47°34' W 122°29'0 0.1
2017-Nov-11 02:30N 47°34' W 122°29'0 0.0
2017-Nov-11 02:00N 47°33' W 122°29'0 0.0
2017-Nov-11 01:30N 47°34' W 122°29'0 0.0
2017-Nov-11 01:00N 47°33' W 122°29'0 0.0
2017-Nov-11 00:30N 47°33' W 122°29'0 0.0
2017-Nov-11 00:00N 47°34' W 122°29'0 0.0
2017-Nov-10 23:30N 47°33' W 122°29'0 0.3
2017-Nov-10 23:00N 47°33' W 122°29'0 0.2
2017-Nov-10 22:30N 47°33' W 122°29'0 0.1
2017-Nov-10 22:00N 47°33' W 122°29'0 0.1
2017-Nov-10 21:30N 47°33' W 122°29'0 0.2
2017-Nov-10 21:00N 47°33' W 122°29'0 0.9
2017-Nov-10 20:30N 47°34' W 122°29'1 1.5
2017-Nov-10 20:00N 47°34' W 122°28'3 6.1
2017-Nov-10 19:30N 47°37' W 122°28'3 6.5
2017-Nov-10 19:00N 47°41' W 122°28'3 6.5
2017-Nov-10 18:30N 47°44' W 122°28'3 6.4
2017-Nov-10 18:00N 47°47' W 122°27'3 6.8
2017-Nov-10 17:30N 47°50' W 122°28'3 6.9
2017-Nov-10 17:00N 47°54' W 122°30'4 8.2
2017-Nov-10 16:30N 47°57' W 122°34'32 7.6
2017-Nov-10 12:21N 48°28' W 122°45'3 7.5
2017-Nov-10 12:00N 48°30' W 122°45'4 8.3
2017-Nov-10 11:30N 48°34' W 122°45'4 8.2
2017-Nov-10 11:00N 48°38' W 122°44'4 7.8
2017-Nov-10 10:30N 48°42' W 122°45'1 0.1
2017-Nov-09 20:09N 48°43' W 122°44'1 5.7
2017-Nov-09 19:55N 48°42' W 122°43'2 5.7
2017-Nov-09 19:30N 48°40' W 122°41'2 3.6
2017-Nov-09 19:00N 48°39' W 122°39'3 5.0
2017-Nov-09 18:29N 48°38' W 122°35'3 5.8
2017-Nov-09 17:57N 48°41' W 122°34'3 5.8
2017-Nov-09 17:22N 48°44' W 122°33'2 5.5
2017-Nov-09 16:59N 48°42' W 122°33'3 5.9
2017-Nov-09 16:30N 48°39' W 122°34'3 5.0
2017-Nov-09 16:00N 48°39' W 122°38'2 3.8
2017-Nov-09 15:30N 48°39' W 122°40'3 5.8
2017-Nov-09 15:00N 48°38' W 122°37'2 4.8
2017-Nov-09 14:30N 48°39' W 122°34'3 5.8
2017-Nov-09 13:58N 48°42' W 122°33'1 1.5
2017-Nov-09 13:30N 48°43' W 122°33'3 5.9
2017-Nov-09 12:58N 48°40' W 122°34'2 5.3
2017-Nov-09 12:30N 48°38' W 122°36'3 5.5
2017-Nov-09 12:00N 48°39' W 122°40'1 2.3
2017-Nov-09 11:30N 48°38' W 122°38'2 4.8
2017-Nov-09 11:00N 48°38' W 122°35'3 5.8
2017-Nov-09 10:30N 48°41' W 122°34'3 4.9
2017-Nov-09 09:59N 48°43' W 122°33'3 5.8
2017-Nov-09 09:30N 48°41' W 122°34'3 5.5
2017-Nov-09 09:00N 48°38' W 122°35'3 5.2
2017-Nov-09 08:30N 48°38' W 122°39'1 1.0
2017-Nov-09 08:00N 48°39' W 122°39'3 5.0
2017-Nov-09 07:30N 48°38' W 122°35'3 5.9
2017-Nov-09 06:59N 48°41' W 122°34'3 5.9
2017-Nov-09 06:27N 48°44' W 122°33'2 5.5
2017-Nov-09 06:00N 48°41' W 122°34'3 5.6
2017-Nov-09 05:30N 48°39' W 122°34'2 4.9
2017-Nov-09 05:00N 48°37' W 122°38'3 5.1
2017-Nov-09 04:30N 48°40' W 122°40'3 5.9
2017-Nov-09 04:00N 48°38' W 122°36'3 5.1
2017-Nov-09 03:30N 48°40' W 122°34'3 4.5
2017-Nov-09 02:51N 48°43' W 122°33'2 5.7
2017-Nov-09 02:29N 48°41' W 122°34'3 5.8
2017-Nov-09 01:59N 48°38' W 122°34'3 5.4
2017-Nov-09 01:30N 48°38' W 122°38'1 2.8
2017-Nov-09 01:00N 48°39' W 122°40'3 5.2
2017-Nov-09 00:25N 48°37' W 122°36'2 3.4
2017-Nov-08 23:57N 48°36' W 122°36'0 0.6
2017-Nov-08 23:30N 48°35' W 122°36'0 0.0
2017-Nov-08 23:00N 48°35' W 122°36'0 0.0
2017-Nov-08 22:30N 48°35' W 122°36'0 0.0
2017-Nov-08 22:00N 48°36' W 122°36'0 0.0
2017-Nov-08 21:30N 48°36' W 122°36'0 0.0
2017-Nov-08 21:00N 48°35' W 122°36'0 0.0
2017-Nov-08 20:30N 48°35' W 122°36'0 0.0
2017-Nov-08 20:00N 48°35' W 122°36'0 0.8
2017-Nov-08 19:30N 48°36' W 122°36'0 0.8
2017-Nov-08 19:00N 48°36' W 122°35'2 3.3
2017-Nov-08 18:30N 48°38' W 122°35'3 3.2
2017-Nov-08 17:42N 48°40' W 122°34'1 3.1
2017-Nov-08 17:27N 48°41' W 122°34'2 2.2
2017-Nov-08 16:43N 48°42' W 122°34'1 2.9
2017-Nov-08 16:28N 48°42' W 122°34'1 2.9
2017-Nov-08 15:59N 48°40' W 122°34'1 2.9
2017-Nov-08 15:30N 48°39' W 122°34'1 2.2
2017-Nov-08 15:00N 48°38' W 122°35'2 3.5
2017-Nov-08 14:30N 48°37' W 122°37'510.8
2017-Nov-08 14:00N 48°32' W 122°41'510.2
2017-Nov-08 13:30N 48°28' W 122°44'30 6.7
2017-Nov-08 09:03N 47°58' W 122°35'1 8.6
2017-Nov-08 08:59N 47°58' W 122°34'4 8.7
2017-Nov-08 08:30N 47°56' W 122°29'4 8.7
2017-Nov-08 08:00N 47°51' W 122°27'4 8.5
2017-Nov-08 07:30N 47°47' W 122°26'4 8.5
2017-Nov-08 07:00N 47°43' W 122°26'4 8.8
2017-Nov-08 06:30N 47°39' W 122°27'4 8.5
2017-Nov-08 06:00N 47°34' W 122°26'4 8.2
2017-Nov-08 05:30N 47°30' W 122°25'4 8.0
2017-Nov-08 05:00N 47°27' W 122°23'4 8.0
2017-Nov-08 04:30N 47°23' W 122°21'4 8.0
2017-Nov-08 04:00N 47°20' W 122°25'3 5.6
2017-Nov-08 03:30N 47°17' W 122°26'1 2.2
2017-Nov-08 03:00N 47°17' W 122°25'0 0.0
2017-Nov-08 02:30N 47°17' W 122°25'  
Track history (hours):
 
Tides and Currents Weather Stations Pressure Air Temp Water Temp Dewpoint Dewpoint Depression Visibility Wind Speed Wind Dir Waves Ship Positions

Lela Joy

Owner: Harley Marine Services, INC, SEATTLE, WA. More information available from US FCC via Universal Licensing System and Coast Guard Vessel Documentation Center.

Last reported at 2017-Nov-18 02:30 UTC. Time now 2017-Nov-18 02:59 UTC.
Position N 47°16' W 122°25'.

Length 26 m; draft 4 m.

Type: Towing. MMSI: 366980230.

Date/timePositionNaut miles runAvg speedWind from/ knotsBaromVisibWave heightAir tempDewpointWater temp
2017-Nov-18 02:30N 47°16' W 122°25'0 0.0
2017-Nov-18 01:59N 47°16' W 122°25'0 0.0
2017-Nov-18 01:30N 47°16' W 122°25'0 0.0
2017-Nov-18 00:59N 47°16' W 122°25'0 0.5
2017-Nov-18 00:28N 47°16' W 122°25'1 1.7
2017-Nov-18 00:00N 47°17' W 122°26'1 2.1
2017-Nov-17 23:30N 47°18' W 122°27'3 5.2
2017-Nov-17 23:00N 47°20' W 122°27'3 6.2
2017-Nov-17 22:30N 47°22' W 122°24'3 5.1
2017-Nov-17 22:00N 47°25' W 122°23'3 6.2
2017-Nov-17 21:30N 47°27' W 122°25'3 6.4
2017-Nov-17 21:00N 47°31' W 122°27'3 6.4
2017-Nov-17 20:30N 47°34' W 122°27'3 6.3
2017-Nov-17 20:00N 47°36' W 122°24'2 4.0
2017-Nov-17 19:30N 47°35' W 122°21'0 0.3
2017-Nov-17 19:00N 47°35' W 122°21'0 0.0
2017-Nov-17 18:30N 47°35' W 122°21'0 0.0
2017-Nov-17 18:00N 47°35' W 122°21'0 0.0
2017-Nov-17 17:30N 47°35' W 122°21'0 0.0
2017-Nov-17 17:00N 47°35' W 122°21'0 0.0
2017-Nov-17 16:30N 47°35' W 122°21'0 0.0
2017-Nov-17 16:00N 47°35' W 122°21'0 0.0
2017-Nov-17 15:30N 47°35' W 122°21'0 0.0
2017-Nov-17 15:00N 47°35' W 122°21'0 0.0
2017-Nov-17 14:30N 47°35' W 122°21'0 0.0
2017-Nov-17 14:00N 47°35' W 122°21'0 0.0
2017-Nov-17 13:30N 47°35' W 122°21'0 0.0
2017-Nov-17 13:00N 47°35' W 122°21'0 0.0
2017-Nov-17 12:30N 47°35' W 122°21'0 0.0
2017-Nov-17 12:00N 47°35' W 122°21'0 0.0
2017-Nov-17 11:30N 47°35' W 122°21'0 0.0
2017-Nov-17 11:00N 47°35' W 122°21'0 0.0
2017-Nov-17 10:31N 47°35' W 122°21'0 0.0
2017-Nov-17 10:00N 47°35' W 122°21'0 0.0
2017-Nov-17 09:30N 47°35' W 122°21'0 0.0
2017-Nov-17 09:00N 47°35' W 122°21'0 0.0
2017-Nov-17 08:30N 47°35' W 122°21'0 0.1
2017-Nov-17 08:00N 47°35' W 122°21'1 1.5
2017-Nov-17 07:30N 47°36' W 122°21'2 3.6
2017-Nov-17 07:00N 47°36' W 122°24'3 6.5
2017-Nov-17 06:30N 47°33' W 122°25'4 7.4
2017-Nov-17 06:00N 47°29' W 122°24'4 7.5
2017-Nov-17 05:30N 47°26' W 122°22'4 7.3
2017-Nov-17 05:00N 47°22' W 122°22'4 7.5
2017-Nov-17 04:30N 47°19' W 122°27'2 4.7
2017-Nov-17 04:00N 47°17' W 122°25'3 1.7
2017-Nov-17 02:25N 47°15' W 122°23'0 0.0
2017-Nov-16 20:38N 47°15' W 122°23'1 7.5
2017-Nov-16 20:29N 47°16' W 122°24'1 1.1
2017-Nov-16 19:49N 47°16' W 122°23'0 0.3
2017-Nov-16 19:03N 47°16' W 122°23'1 1.5
2017-Nov-16 18:37N 47°15' W 122°23'0 0.0
2017-Nov-16 18:30N 47°15' W 122°23'0 0.1
2017-Nov-16 15:32N 47°16' W 122°23'0 8.7
2017-Nov-16 15:30N 47°16' W 122°23'0 0.2
2017-Nov-16 13:49N 47°16' W 122°23'1 3.8
2017-Nov-16 13:26N 47°17' W 122°25'1 2.6
2017-Nov-16 13:00N 47°17' W 122°26'2 3.8
2017-Nov-16 12:30N 47°19' W 122°28'3 5.3
2017-Nov-16 12:00N 47°21' W 122°26'3 5.9
2017-Nov-16 11:30N 47°23' W 122°22'3 5.8
2017-Nov-16 11:00N 47°26' W 122°24'3 6.2
2017-Nov-16 10:30N 47°29' W 122°26'3 6.3
2017-Nov-16 10:00N 47°32' W 122°26'3 6.0
2017-Nov-16 09:30N 47°35' W 122°26'3 5.7
2017-Nov-16 09:00N 47°36' W 122°23'1 2.7
2017-Nov-16 08:30N 47°35' W 122°21'0 0.1
2017-Nov-16 08:00N 47°35' W 122°21'0 0.1
2017-Nov-16 07:30N 47°35' W 122°21'0 0.0
2017-Nov-16 07:00N 47°35' W 122°21'0 0.0
2017-Nov-16 06:30N 47°35' W 122°21'0 0.0
2017-Nov-16 06:00N 47°35' W 122°21'0 0.0
2017-Nov-16 05:30N 47°35' W 122°21'0 0.0
2017-Nov-16 05:01N 47°35' W 122°21'0 0.0
2017-Nov-16 04:30N 47°35' W 122°21'0 0.0
2017-Nov-16 04:00N 47°35' W 122°21'0 0.0
2017-Nov-16 03:30N 47°35' W 122°21'0 0.0
2017-Nov-16 03:00N 47°35' W 122°21'0 0.0
2017-Nov-16 02:30N 47°35' W 122°21'0 0.0
2017-Nov-16 02:00N 47°35' W 122°21'0 0.0
2017-Nov-16 01:30N 47°35' W 122°21'0 0.0
2017-Nov-16 01:01N 47°35' W 122°21'0 0.0
2017-Nov-16 00:30N 47°35' W 122°21'0 0.0
2017-Nov-16 00:00N 47°35' W 122°21'0 0.0
2017-Nov-15 23:30N 47°35' W 122°21'0 0.0
2017-Nov-15 23:00N 47°35' W 122°21'0 0.0
2017-Nov-15 22:30N 47°35' W 122°21'1 1.9
2017-Nov-15 22:00N 47°34' W 122°21'0 0.1
2017-Nov-15 21:31N 47°34' W 122°21'1 1.8
2017-Nov-15 21:00N 47°35' W 122°21'0 0.0
2017-Nov-15 20:30N 47°35' W 122°21'0 0.0
2017-Nov-15 20:00N 47°35' W 122°21'0 0.0
2017-Nov-15 19:30N 47°35' W 122°21'0 0.0
2017-Nov-15 19:00N 47°35' W 122°21'0 0.0
2017-Nov-15 18:30N 47°35' W 122°21'0 0.7
2017-Nov-15 18:00N 47°35' W 122°21'1 1.8
2017-Nov-15 17:30N 47°34' W 122°21'0 0.0
2017-Nov-15 17:00N 47°34' W 122°21'1 2.0
2017-Nov-15 16:30N 47°35' W 122°21'0 0.0
2017-Nov-15 16:00N 47°35' W 122°21'0 0.0
2017-Nov-15 15:30N 47°35' W 122°21'0 0.0
2017-Nov-15 15:00N 47°35' W 122°21'0 0.0
2017-Nov-15 14:30N 47°35' W 122°21'0 0.0
2017-Nov-15 14:00N 47°35' W 122°21'0 0.0
2017-Nov-15 13:30N 47°35' W 122°21'0 0.0
2017-Nov-15 13:01N 47°35' W 122°21'0 0.0
2017-Nov-15 12:30N 47°35' W 122°21'0 0.0
2017-Nov-15 12:00N 47°35' W 122°21'0 0.0
2017-Nov-15 11:30N 47°35' W 122°21'0 0.0
2017-Nov-15 11:00N 47°35' W 122°21'0 0.0
2017-Nov-15 10:30N 47°35' W 122°21'0 0.0
2017-Nov-15 10:00N 47°35' W 122°21'0 0.0
2017-Nov-15 09:30N 47°35' W 122°21'0 0.0
2017-Nov-15 09:00N 47°35' W 122°21'0 0.0
2017-Nov-15 08:30N 47°35' W 122°21'0 0.0
2017-Nov-15 08:00N 47°35' W 122°21'0 0.0
2017-Nov-15 07:30N 47°35' W 122°21'0 0.0
2017-Nov-15 07:00N 47°35' W 122°21'0 0.0
2017-Nov-15 06:30N 47°35' W 122°21'0 0.0
2017-Nov-15 06:00N 47°35' W 122°21'0 0.0
2017-Nov-15 05:30N 47°35' W 122°21'0 0.0
2017-Nov-15 05:00N 47°35' W 122°21'0 0.0
2017-Nov-15 04:30N 47°35' W 122°21'0 0.0
2017-Nov-15 04:00N 47°35' W 122°21'0 0.0
2017-Nov-15 03:30N 47°35' W 122°21'0 0.0
2017-Nov-15 03:00N 47°35' W 122°21'0 0.0
2017-Nov-15 02:31N 47°35' W 122°21'0 0.0
2017-Nov-15 02:00N 47°35' W 122°21'0 0.0
2017-Nov-15 01:30N 47°35' W 122°21'0 0.0
2017-Nov-15 01:00N 47°35' W 122°21'1 1.6
2017-Nov-15 00:30N 47°36' W 122°22'3 6.1
2017-Nov-15 00:00N 47°35' W 122°26'3 6.7
2017-Nov-14 23:31N 47°34' W 122°31'0 0.1
2017-Nov-14 23:00N 47°34' W 122°31'0 0.1
2017-Nov-14 22:30N 47°34' W 122°30'0 0.2
2017-Nov-14 22:00N 47°34' W 122°30'0 0.2
2017-Nov-14 21:29N 47°34' W 122°30'0 0.0
2017-Nov-14 21:00N 47°34' W 122°30'0 0.1
2017-Nov-14 20:30N 47°34' W 122°30'0 0.1
2017-Nov-14 20:00N 47°34' W 122°30'0 0.0
2017-Nov-14 19:30N 47°34' W 122°30'0 0.2
2017-Nov-14 19:00N 47°34' W 122°30'0 0.0
2017-Nov-14 18:30N 47°34' W 122°30'0 0.1
2017-Nov-14 18:00N 47°34' W 122°31'0 0.0
2017-Nov-14 17:30N 47°34' W 122°31'0 0.0
2017-Nov-14 17:00N 47°34' W 122°31'0 0.1
2017-Nov-14 16:30N 47°34' W 122°30'0 0.0
2017-Nov-14 16:00N 47°34' W 122°30'0 0.0
2017-Nov-14 15:30N 47°34' W 122°30'0 0.0
2017-Nov-14 15:00N 47°34' W 122°30'0 0.0
2017-Nov-14 14:30N 47°34' W 122°30'0 0.0
2017-Nov-14 14:00N 47°34' W 122°30'0 0.0
2017-Nov-14 13:30N 47°34' W 122°30'0 0.0
2017-Nov-14 13:00N 47°34' W 122°30'0 0.1
2017-Nov-14 12:31N 47°34' W 122°31'2 3.0
2017-Nov-14 12:00N 47°34' W 122°28'2 4.1
2017-Nov-14 11:30N 47°35' W 122°26'3 5.2
2017-Nov-14 11:00N 47°36' W 122°22'1 2.0
2017-Nov-14 10:30N 47°35' W 122°21'0 0.1
2017-Nov-14 10:00N 47°35' W 122°21'0 0.0
2017-Nov-14 09:30N 47°35' W 122°21'0 0.0
2017-Nov-14 09:00N 47°35' W 122°21'0 0.0
2017-Nov-14 08:30N 47°35' W 122°21'0 0.0
2017-Nov-14 08:00N 47°35' W 122°21'0 0.0
2017-Nov-14 07:30N 47°35' W 122°21'0 0.0
2017-Nov-14 07:00N 47°35' W 122°21'0 0.0
2017-Nov-14 06:30N 47°35' W 122°21'0 0.0
2017-Nov-14 06:00N 47°35' W 122°21'0 0.0
2017-Nov-14 05:30N 47°35' W 122°21'0 0.0
2017-Nov-14 05:00N 47°35' W 122°21'0 0.0
2017-Nov-14 04:30N 47°35' W 122°21'0 0.0
2017-Nov-14 04:00N 47°35' W 122°21'0 0.0
2017-Nov-14 03:30N 47°35' W 122°21'0 0.0
2017-Nov-14 03:00N 47°35' W 122°21'0 0.0
2017-Nov-14 02:30N 47°35' W 122°21'0 0.0
2017-Nov-14 02:00N 47°35' W 122°21'0 0.0
2017-Nov-14 01:30N 47°35' W 122°21'0 0.0
2017-Nov-14 01:00N 47°35' W 122°21'1 1.9
2017-Nov-14 00:30N 47°34' W 122°21'0 0.7
2017-Nov-14 00:00N 47°35' W 122°21'0 0.6
2017-Nov-13 23:30N 47°34' W 122°21'1 2.7
2017-Nov-13 23:00N 47°36' W 122°21'0 0.3
2017-Nov-13 22:30N 47°36' W 122°21'0 0.6
2017-Nov-13 22:00N 47°35' W 122°21'1 0.0
2017-Nov-13 02:00N 47°35' W 122°23'0 0.0
2017-Nov-13 01:30N 47°35' W 122°23'0 0.0
2017-Nov-13 01:00N 47°35' W 122°23'0 0.1
2017-Nov-13 00:30N 47°35' W 122°23'0 0.0
2017-Nov-13 00:00N 47°35' W 122°23'0 0.0
2017-Nov-12 23:30N 47°35' W 122°23'0 0.1
2017-Nov-12 23:00N 47°35' W 122°23'0 0.0
2017-Nov-12 22:30N 47°35' W 122°23'0 0.7
2017-Nov-12 22:00N 47°36' W 122°22'0 0.5
2017-Nov-12 21:30N 47°36' W 122°22'0 0.0
2017-Nov-12 21:00N 47°36' W 122°22'0 0.0
2017-Nov-12 20:29N 47°36' W 122°22'0 0.0
2017-Nov-12 20:01N 47°36' W 122°22'0 0.0
2017-Nov-12 19:30N 47°36' W 122°22'0 0.0
2017-Nov-12 19:00N 47°36' W 122°22'0 0.1
2017-Nov-12 18:30N 47°36' W 122°22'0 0.0
2017-Nov-12 18:00N 47°36' W 122°22'0 0.0
2017-Nov-12 17:30N 47°36' W 122°22'0 0.1
2017-Nov-12 17:00N 47°36' W 122°22'0 0.0
2017-Nov-12 16:30N 47°36' W 122°22'0 0.0
2017-Nov-12 16:00N 47°36' W 122°22'0 0.0
2017-Nov-12 15:29N 47°36' W 122°22'0 0.0
2017-Nov-12 15:00N 47°36' W 122°22'0 0.0
2017-Nov-12 14:30N 47°36' W 122°22'0 0.1
2017-Nov-12 14:00N 47°36' W 122°22'0 0.0
2017-Nov-12 13:30N 47°36' W 122°22'0 0.1
2017-Nov-12 13:00N 47°36' W 122°22'0 0.0
2017-Nov-12 12:30N 47°36' W 122°22'0 0.0
2017-Nov-12 12:00N 47°36' W 122°22'0 0.0
2017-Nov-12 11:30N 47°36' W 122°22'0 0.0
2017-Nov-12 11:01N 47°36' W 122°22'0 0.0
2017-Nov-12 10:30N 47°36' W 122°22'0 0.0
2017-Nov-12 10:00N 47°36' W 122°22'0 0.0
2017-Nov-12 09:30N 47°36' W 122°22'0 0.0
2017-Nov-12 09:00N 47°36' W 122°22'0 0.0
2017-Nov-12 08:30N 47°36' W 122°22'0 0.0
2017-Nov-12 08:00N 47°36' W 122°22'0 0.1
2017-Nov-12 07:30N 47°36' W 122°22'0 0.2
2017-Nov-12 07:01N 47°36' W 122°22'1 1.8
2017-Nov-12 06:30N 47°35' W 122°21'0 0.1
2017-Nov-12 06:00N 47°35' W 122°21'0 0.0
2017-Nov-12 05:30N 47°35' W 122°21'0 0.0
2017-Nov-12 05:00N 47°35' W 122°21'0 0.0
2017-Nov-12 04:31N 47°35' W 122°21'0 0.0
2017-Nov-12 04:00N 47°35' W 122°21'0 0.0
2017-Nov-12 03:30N 47°35' W 122°21'0 0.0
2017-Nov-12 03:01N 47°35' W 122°21'0 0.0
2017-Nov-12 02:30N 47°35' W 122°21'0 0.0
2017-Nov-12 02:00N 47°35' W 122°21'0 0.0
2017-Nov-12 01:30N 47°35' W 122°21'0 0.0
2017-Nov-12 01:00N 47°35' W 122°21'1 1.5
2017-Nov-12 00:30N 47°35' W 122°21'0 0.4
2017-Nov-12 00:00N 47°34' W 122°21'0 0.0
2017-Nov-11 23:30N 47°34' W 122°21'0 0.0
2017-Nov-11 23:00N 47°34' W 122°21'0 0.0
2017-Nov-11 22:30N 47°34' W 122°21'0 0.0
2017-Nov-11 22:00N 47°34' W 122°21'0 0.0
2017-Nov-11 21:30N 47°34' W 122°21'0 0.0
2017-Nov-11 21:00N 47°34' W 122°21'0 0.0
2017-Nov-11 20:30N 47°34' W 122°21'0 0.0
2017-Nov-11 20:00N 47°34' W 122°21'0 0.0
2017-Nov-11 19:30N 47°34' W 122°21'0 0.0
2017-Nov-11 19:00N 47°34' W 122°21'0 0.0
2017-Nov-11 18:30N 47°34' W 122°21'1 1.4
2017-Nov-11 18:01N 47°35' W 122°21'0 0.7
2017-Nov-11 17:30N 47°35' W 122°21'3 5.1
2017-Nov-11 17:00N 47°36' W 122°24'3 6.2
2017-Nov-11 16:30N 47°34' W 122°28'3 5.3
2017-Nov-11 16:00N 47°32' W 122°32'0 0.1
2017-Nov-11 15:30N 47°32' W 122°32'0 0.1
2017-Nov-11 15:00N 47°33' W 122°32'0 0.1
2017-Nov-11 14:31N 47°33' W 122°32'0 0.1
2017-Nov-11 14:00N 47°33' W 122°32'0 0.1
2017-Nov-11 13:30N 47°33' W 122°32'0 0.2
2017-Nov-11 13:00N 47°33' W 122°31'0 0.0
2017-Nov-11 12:30N 47°33' W 122°31'0 0.0
2017-Nov-11 12:00N 47°33' W 122°31'0 0.0
2017-Nov-11 11:30N 47°33' W 122°31'0 0.0
2017-Nov-11 11:00N 47°33' W 122°31'0 0.1
2017-Nov-11 10:30N 47°33' W 122°31'0 0.0
2017-Nov-11 10:00N 47°33' W 122°31'0 0.0
2017-Nov-11 09:30N 47°33' W 122°31'0 0.0
2017-Nov-11 09:00N 47°33' W 122°31'0 0.1
2017-Nov-11 08:30N 47°33' W 122°31'0 0.1
2017-Nov-11 08:00N 47°33' W 122°31'0 0.1
2017-Nov-11 07:30N 47°33' W 122°31'0 0.1
2017-Nov-11 07:00N 47°33' W 122°31'1 2.6
2017-Nov-11 06:30N 47°33' W 122°30'0 0.5
2017-Nov-11 06:00N 47°34' W 122°29'0 0.0
2017-Nov-11 05:30N 47°34' W 122°29'0 0.0
2017-Nov-11 05:00N 47°34' W 122°29'0 0.1
2017-Nov-11 04:30N 47°34' W 122°29'0 0.0
2017-Nov-11 04:00N 47°34' W 122°29'0 0.0
2017-Nov-11 03:30N 47°34' W 122°29'0 0.1
2017-Nov-11 03:00N 47°34' W 122°29'0 0.1
2017-Nov-11 02:30N 47°34' W 122°29'0 0.0
2017-Nov-11 02:00N 47°33' W 122°29'0 0.0
2017-Nov-11 01:30N 47°34' W 122°29'0 0.0
2017-Nov-11 01:00N 47°33' W 122°29'0 0.0
2017-Nov-11 00:30N 47°33' W 122°29'0 0.0
2017-Nov-11 00:00N 47°34' W 122°29'0 0.0
2017-Nov-10 23:30N 47°33' W 122°29'0 0.3
2017-Nov-10 23:00N 47°33' W 122°29'0 0.2
2017-Nov-10 22:30N 47°33' W 122°29'0 0.1
2017-Nov-10 22:00N 47°33' W 122°29'0 0.1
2017-Nov-10 21:30N 47°33' W 122°29'0 0.2
2017-Nov-10 21:00N 47°33' W 122°29'0 0.9
2017-Nov-10 20:30N 47°34' W 122°29'1 1.5
2017-Nov-10 20:00N 47°34' W 122°28'3 6.1
2017-Nov-10 19:30N 47°37' W 122°28'3 6.5
2017-Nov-10 19:00N 47°41' W 122°28'3 6.5
2017-Nov-10 18:30N 47°44' W 122°28'3 6.4
2017-Nov-10 18:00N 47°47' W 122°27'3 6.8
2017-Nov-10 17:30N 47°50' W 122°28'3 6.9
2017-Nov-10 17:00N 47°54' W 122°30'4 8.2
2017-Nov-10 16:30N 47°57' W 122°34'32 7.6
2017-Nov-10 12:21N 48°28' W 122°45'3 7.5
2017-Nov-10 12:00N 48°30' W 122°45'4 8.3
2017-Nov-10 11:30N 48°34' W 122°45'4 8.2
2017-Nov-10 11:00N 48°38' W 122°44'4 7.8
2017-Nov-10 10:30N 48°42' W 122°45'1 0.1
2017-Nov-09 20:09N 48°43' W 122°44'1 5.7
2017-Nov-09 19:55N 48°42' W 122°43'2 5.7
2017-Nov-09 19:30N 48°40' W 122°41'2 3.6
2017-Nov-09 19:00N 48°39' W 122°39'3 5.0
2017-Nov-09 18:29N 48°38' W 122°35'3 5.8
2017-Nov-09 17:57N 48°41' W 122°34'3 5.8
2017-Nov-09 17:22N 48°44' W 122°33'2 5.5
2017-Nov-09 16:59N 48°42' W 122°33'3 5.9
2017-Nov-09 16:30N 48°39' W 122°34'3 5.0
2017-Nov-09 16:00N 48°39' W 122°38'2 3.8
2017-Nov-09 15:30N 48°39' W 122°40'3 5.8
2017-Nov-09 15:00N 48°38' W 122°37'2 4.8
2017-Nov-09 14:30N 48°39' W 122°34'3 5.8
2017-Nov-09 13:58N 48°42' W 122°33'1 1.5
2017-Nov-09 13:30N 48°43' W 122°33'3 5.9
2017-Nov-09 12:58N 48°40' W 122°34'2 5.3
2017-Nov-09 12:30N 48°38' W 122°36'3 5.5
2017-Nov-09 12:00N 48°39' W 122°40'1 2.3
2017-Nov-09 11:30N 48°38' W 122°38'2 4.8
2017-Nov-09 11:00N 48°38' W 122°35'3 5.8
2017-Nov-09 10:30N 48°41' W 122°34'3 4.9
2017-Nov-09 09:59N 48°43' W 122°33'3 5.8
2017-Nov-09 09:30N 48°41' W 122°34'3 5.5
2017-Nov-09 09:00N 48°38' W 122°35'3 5.2
2017-Nov-09 08:30N 48°38' W 122°39'1 1.0
2017-Nov-09 08:00N 48°39' W 122°39'3 5.0
2017-Nov-09 07:30N 48°38' W 122°35'3 5.9
2017-Nov-09 06:59N 48°41' W 122°34'3 5.9
2017-Nov-09 06:27N 48°44' W 122°33'2 5.5
2017-Nov-09 06:00N 48°41' W 122°34'3 5.6
2017-Nov-09 05:30N 48°39' W 122°34'2 4.9
2017-Nov-09 05:00N 48°37' W 122°38'3 5.1
2017-Nov-09 04:30N 48°40' W 122°40'3 5.9
2017-Nov-09 04:00N 48°38' W 122°36'3 5.1
2017-Nov-09 03:30N 48°40' W 122°34'3 4.5
2017-Nov-09 02:51N 48°43' W 122°33'2 5.7
2017-Nov-09 02:29N 48°41' W 122°34'3 5.8
2017-Nov-09 01:59N 48°38' W 122°34'3 5.4
2017-Nov-09 01:30N 48°38' W 122°38'1 2.8
2017-Nov-09 01:00N 48°39' W 122°40'3 5.2
2017-Nov-09 00:25N 48°37' W 122°36'2 3.4
2017-Nov-08 23:57N 48°36' W 122°36'0 0.6
2017-Nov-08 23:30N 48°35' W 122°36'0 0.0
2017-Nov-08 23:00N 48°35' W 122°36'0 0.0
2017-Nov-08 22:30N 48°35' W 122°36'0 0.0
2017-Nov-08 22:00N 48°36' W 122°36'0 0.0
2017-Nov-08 21:30N 48°36' W 122°36'0 0.0
2017-Nov-08 21:00N 48°35' W 122°36'0 0.0
2017-Nov-08 20:30N 48°35' W 122°36'0 0.0
2017-Nov-08 20:00N 48°35' W 122°36'0 0.8
2017-Nov-08 19:30N 48°36' W 122°36'0 0.8
2017-Nov-08 19:00N 48°36' W 122°35'2 3.3
2017-Nov-08 18:30N 48°38' W 122°35'3 3.2
2017-Nov-08 17:42N 48°40' W 122°34'1 3.1
2017-Nov-08 17:27N 48°41' W 122°34'2 2.2
2017-Nov-08 16:43N 48°42' W 122°34'1 2.9
2017-Nov-08 16:28N 48°42' W 122°34'1 2.9
2017-Nov-08 15:59N 48°40' W 122°34'1 2.9
2017-Nov-08 15:30N 48°39' W 122°34'1 2.2
2017-Nov-08 15:00N 48°38' W 122°35'2 3.5
2017-Nov-08 14:30N 48°37' W 122°37'510.8
2017-Nov-08 14:00N 48°32' W 122°41'510.2
2017-Nov-08 13:30N 48°28' W 122°44'30 6.7
2017-Nov-08 09:03N 47°58' W 122°35'1 8.6
2017-Nov-08 08:59N 47°58' W 122°34'4 8.7
2017-Nov-08 08:30N 47°56' W 122°29'4 8.7
2017-Nov-08 08:00N 47°51' W 122°27'4 8.5
2017-Nov-08 07:30N 47°47' W 122°26'4 8.5
2017-Nov-08 07:00N 47°43' W 122°26'4 8.8
2017-Nov-08 06:30N 47°39' W 122°27'4 8.5
2017-Nov-08 06:00N 47°34' W 122°26'4 8.2
2017-Nov-08 05:30N 47°30' W 122°25'4 8.0
2017-Nov-08 05:00N 47°27' W 122°23'4 8.0
2017-Nov-08 04:30N 47°23' W 122°21'4 8.0
2017-Nov-08 04:00N 47°20' W 122°25'3 5.6
2017-Nov-08 03:30N 47°17' W 122°26'1 2.2
2017-Nov-08 03:00N 47°17' W 122°25'0 0.0
2017-Nov-08 02:30N 47°17' W 122°25'  

Dump ship's entire track history